VEG YGIG-YSEN
Flight info
| Callsign | VEG |
|---|---|
| Flight time | 0h 21m |
| Altitude | 3000 |
| Route | YRTI |
| Aircraft | TBM9/L-V/N |
Departure
| Time | 2026-04-26 15:05 |
|---|---|
| Airport | RAAF Gingin (YGIG) |
Arrival
| Time | 2026-04-26 15:26 |
|---|---|
| Airport | Serpentine Airport (YSEN) |
| Time | Latitude | Longitude | Altitude | Speed | Heading |
|---|---|---|---|---|---|
| 2026-04-26 14:57 | -31.46704 | 115.86078 | 246 ft | 0 kts | 255° |
| 2026-04-26 15:00 | -31.46806 | 115.86127 | 248 ft | 31 kts | 167° |
| 2026-04-26 15:00 | -31.46769 | 115.86041 | 248 ft | 23 kts | 341° |
| 2026-04-26 15:00 | -31.46678 | 115.85903 | 248 ft | 32 kts | 255° |
| 2026-04-26 15:00 | -31.46749 | 115.85591 | 248 ft | 41 kts | 255° |
| 2026-04-26 15:01 | -31.46756 | 115.85398 | 251 ft | 1 kts | 330° |
| 2026-04-26 15:01 | -31.46755 | 115.85398 | 251 ft | 0 kts | 330° |
| 2026-04-26 15:04 | -31.46729 | 115.85393 | 248 ft | 22 kts | 360° |
| 2026-04-26 15:04 | -31.46562 | 115.85758 | 250 ft | 89 kts | 75° |
| 2026-04-26 15:05 | -31.46430 | 115.86324 | 247 ft | 128 kts | 74° |
| 2026-04-26 15:05 | -31.46249 | 115.87058 | 468 ft | 142 kts | 81° |
| 2026-04-26 15:05 | -31.46970 | 115.88816 | 1244 ft | 162 kts | 146° |
| 2026-04-26 15:05 | -31.48002 | 115.89138 | 2169 ft | 153 kts | 178° |
| 2026-04-26 15:06 | -31.48687 | 115.88921 | 2627 ft | 159 kts | 206° |
| 2026-04-26 15:06 | -31.49687 | 115.88252 | 3063 ft | 177 kts | 211° |
| 2026-04-26 15:06 | -31.50830 | 115.87487 | 3089 ft | 204 kts | 211° |
| 2026-04-26 15:06 | -31.52134 | 115.86607 | 3096 ft | 227 kts | 211° |
| 2026-04-26 15:07 | -31.55082 | 115.84614 | 3085 ft | 255 kts | 211° |
| 2026-04-26 15:07 | -31.56631 | 115.83578 | 3087 ft | 258 kts | 211° |
| 2026-04-26 15:07 | -31.58204 | 115.82529 | 3080 ft | 262 kts | 211° |
| 2026-04-26 15:08 | -31.59791 | 115.81469 | 3088 ft | 263 kts | 211° |
| 2026-04-26 15:08 | -31.61381 | 115.80405 | 3083 ft | 264 kts | 211° |
| 2026-04-26 15:08 | -31.62971 | 115.79338 | 3084 ft | 263 kts | 211° |
| 2026-04-26 15:08 | -31.64555 | 115.78276 | 3085 ft | 261 kts | 211° |
| 2026-04-26 15:09 | -31.66129 | 115.77223 | 3083 ft | 260 kts | 211° |
| 2026-04-26 15:09 | -31.67695 | 115.76170 | 3081 ft | 258 kts | 211° |
| 2026-04-26 15:09 | -31.69253 | 115.75123 | 3078 ft | 258 kts | 211° |
| 2026-04-26 15:09 | -31.70807 | 115.74079 | 3079 ft | 258 kts | 211° |
| 2026-04-26 15:10 | -31.72364 | 115.73033 | 3078 ft | 258 kts | 211° |
| 2026-04-26 15:10 | -31.73395 | 115.72339 | 3062 ft | 258 kts | 211° |
| 2026-04-26 15:10 | -31.75486 | 115.70931 | 3003 ft | 259 kts | 211° |
| 2026-04-26 15:10 | -31.77049 | 115.69881 | 3003 ft | 258 kts | 211° |
| 2026-04-26 15:11 | -31.78607 | 115.68834 | 3002 ft | 258 kts | 211° |
| 2026-04-26 15:11 | -31.80161 | 115.67787 | 3003 ft | 257 kts | 211° |
| 2026-04-26 15:11 | -31.81708 | 115.66744 | 3001 ft | 256 kts | 211° |
| 2026-04-26 15:11 | -31.83255 | 115.65702 | 3000 ft | 256 kts | 211° |
| 2026-04-26 15:12 | -31.84802 | 115.64658 | 2994 ft | 256 kts | 211° |
| 2026-04-26 15:12 | -31.86349 | 115.63616 | 3002 ft | 256 kts | 211° |
| 2026-04-26 15:12 | -31.87898 | 115.62572 | 2994 ft | 257 kts | 211° |
| 2026-04-26 15:12 | -31.89444 | 115.61528 | 2995 ft | 256 kts | 211° |
| 2026-04-26 15:13 | -31.90991 | 115.60482 | 2998 ft | 256 kts | 211° |
| 2026-04-26 15:13 | -31.92536 | 115.59439 | 2995 ft | 256 kts | 212° |
| 2026-04-26 15:13 | -31.94082 | 115.58394 | 2993 ft | 256 kts | 211° |
| 2026-04-26 15:13 | -31.95623 | 115.57352 | 2996 ft | 255 kts | 211° |
| 2026-04-26 15:14 | -31.97162 | 115.56313 | 2995 ft | 255 kts | 211° |
| 2026-04-26 15:14 | -31.98773 | 115.55456 | 2992 ft | 255 kts | 197° |
| 2026-04-26 15:14 | -32.00496 | 115.55155 | 2997 ft | 255 kts | 180° |
| 2026-04-26 15:14 | -32.02268 | 115.55431 | 2993 ft | 254 kts | 164° |
| 2026-04-26 15:15 | -32.03884 | 115.56254 | 2993 ft | 252 kts | 147° |
| 2026-04-26 15:15 | -32.05230 | 115.57521 | 2992 ft | 251 kts | 134° |
| 2026-04-26 15:15 | -32.06520 | 115.58958 | 3002 ft | 252 kts | 138° |
| 2026-04-26 15:15 | -32.07899 | 115.60190 | 3004 ft | 253 kts | 144° |
| 2026-04-26 15:16 | -32.09369 | 115.61382 | 3003 ft | 253 kts | 143° |
| 2026-04-26 15:16 | -32.10775 | 115.62576 | 3001 ft | 253 kts | 142° |
| 2026-04-26 15:16 | -32.12212 | 115.63822 | 2998 ft | 253 kts | 142° |
| 2026-04-26 15:16 | -32.13617 | 115.65027 | 2998 ft | 253 kts | 143° |
| 2026-04-26 15:17 | -32.15040 | 115.66241 | 2992 ft | 253 kts | 143° |
| 2026-04-26 15:17 | -32.16001 | 115.67068 | 2990 ft | 253 kts | 143° |
| 2026-04-26 15:17 | -32.17879 | 115.68683 | 2990 ft | 252 kts | 143° |
| 2026-04-26 15:17 | -32.19294 | 115.69900 | 2993 ft | 252 kts | 142° |
| 2026-04-26 15:18 | -32.20712 | 115.71116 | 2990 ft | 252 kts | 142° |
| 2026-04-26 15:18 | -32.22129 | 115.72334 | 2992 ft | 252 kts | 143° |
| 2026-04-26 15:18 | -32.23546 | 115.73552 | 2991 ft | 252 kts | 142° |
| 2026-04-26 15:18 | -32.24965 | 115.74771 | 2991 ft | 252 kts | 142° |
| 2026-04-26 15:19 | -32.26380 | 115.75990 | 2994 ft | 252 kts | 142° |
| 2026-04-26 15:19 | -32.27798 | 115.77212 | 2995 ft | 252 kts | 143° |
| 2026-04-26 15:19 | -32.29214 | 115.78429 | 2993 ft | 252 kts | 143° |
| 2026-04-26 15:19 | -32.30634 | 115.79651 | 2996 ft | 252 kts | 143° |
| 2026-04-26 15:20 | -32.32052 | 115.80876 | 2995 ft | 252 kts | 143° |
| 2026-04-26 15:20 | -32.33470 | 115.82097 | 2997 ft | 252 kts | 143° |
| 2026-04-26 15:20 | -32.34887 | 115.83318 | 2996 ft | 252 kts | 143° |
| 2026-04-26 15:20 | -32.36303 | 115.84542 | 3002 ft | 252 kts | 143° |
| 2026-04-26 15:21 | -32.37719 | 115.85762 | 3000 ft | 252 kts | 143° |
| 2026-04-26 15:21 | -32.39135 | 115.86986 | 3003 ft | 252 kts | 143° |
| 2026-04-26 15:21 | -32.40551 | 115.88207 | 3007 ft | 252 kts | 143° |
| 2026-04-26 15:21 | -32.41960 | 115.89439 | 2387 ft | 258 kts | 139° |
| 2026-04-26 15:22 | -32.42585 | 115.90944 | 1875 ft | 142 kts | 92° |
| 2026-04-26 15:22 | -32.42300 | 115.91733 | 1580 ft | 95 kts | 38° |
| 2026-04-26 15:22 | -32.41629 | 115.91857 | 1479 ft | 104 kts | 345° |
| 2026-04-26 15:22 | -32.41149 | 115.91223 | 1359 ft | 114 kts | 292° |
| 2026-04-26 15:23 | -32.41259 | 115.90277 | 1206 ft | 122 kts | 245° |
| 2026-04-26 15:23 | -32.41553 | 115.89338 | 1074 ft | 127 kts | 277° |
| 2026-04-26 15:23 | -32.41026 | 115.88557 | 985 ft | 124 kts | 322° |
| 2026-04-26 15:23 | -32.40205 | 115.88440 | 679 ft | 128 kts | 21° |
| 2026-04-26 15:24 | -32.39430 | 115.88648 | 572 ft | 101 kts | 334° |
| 2026-04-26 15:24 | -32.39116 | 115.87925 | 233 ft | 108 kts | 278° |
| 2026-04-26 15:24 | -32.39402 | 115.87231 | 31 ft | 84 kts | 221° |
| 2026-04-26 15:24 | -32.39755 | 115.86799 | 62 ft | 76 kts | 219° |
| 2026-04-26 15:25 | -32.40183 | 115.86654 | 362 ft | 66 kts | 125° |
| 2026-04-26 15:25 | -32.40186 | 115.86980 | 459 ft | 75 kts | 52° |
| 2026-04-26 15:25 | -32.39501 | 115.87992 | 379 ft | 158 kts | 51° |
| 2026-04-26 15:25 | -32.38649 | 115.88790 | 677 ft | 133 kts | 349° |
| 2026-04-26 15:26 | -32.38550 | 115.88164 | 576 ft | 82 kts | 219° |
| 2026-04-26 15:26 | -32.39065 | 115.87627 | 69 ft | 94 kts | 224° |
| 2026-04-26 15:26 | -32.39448 | 115.87174 | 27 ft | 64 kts | 211° |
| 2026-04-26 15:26 | -32.39638 | 115.86952 | 29 ft | 9 kts | 227° |
| 2026-04-26 15:27 | -32.39616 | 115.86977 | 28 ft | 8 kts | 223° |
| 2026-04-26 15:27 | -32.39576 | 115.87019 | 29 ft | 8 kts | 220° |
| 2026-04-26 15:27 | -32.39542 | 115.87064 | 29 ft | 7 kts | 229° |
| 2026-04-26 15:27 | -32.39507 | 115.87108 | 29 ft | 8 kts | 221° |
| 2026-04-26 15:28 | -32.39491 | 115.87127 | 29 ft | 14 kts | 350° |
| 2026-04-26 15:28 | -32.39483 | 115.87082 | 30 ft | 5 kts | 229° |
| 2026-04-26 15:28 | -32.39509 | 115.87047 | 30 ft | 7 kts | 227° |
| 2026-04-26 15:28 | -32.39537 | 115.87016 | 30 ft | 0 kts | 168° |
| 2026-04-26 15:29 | -32.39539 | 115.87017 | 30 ft | 1 kts | 165° |
| 2026-04-26 15:29 | -32.39554 | 115.87021 | 30 ft | 3 kts | 186° |
| 2026-04-26 15:29 | -32.39471 | 115.87107 | 29 ft | 4 kts | 61° |
| 2026-04-26 15:30 | -32.39470 | 115.87110 | 29 ft | 0 kts | 358° |
| 2026-04-26 15:30 | -32.39390 | 115.87153 | 30 ft | 8 kts | 75° |
| 2026-04-26 15:30 | -32.39404 | 115.87173 | 28 ft | 2 kts | 176° |
| 2026-04-26 15:31 | -32.39408 | 115.87171 | 28 ft | 0 kts | 215° |